createdAt,value
2023-04-26T00:01:10.798Z,60.23
2023-04-26T00:03:39.955Z,60.24
2023-04-26T00:06:08.264Z,60.28
2023-04-26T00:08:38.430Z,60.28
2023-04-26T00:11:04.920Z,60.45
2023-04-26T00:13:31.481Z,60.35
2023-04-26T00:15:58.083Z,60.38
2023-04-26T00:18:24.714Z,60.47
2023-04-26T00:20:51.327Z,60.52
2023-04-26T00:23:17.899Z,60.54
2023-04-26T00:25:44.356Z,60.62
2023-04-26T00:28:10.929Z,60.64
2023-04-26T00:30:40.582Z,60.68
2023-04-26T00:33:07.308Z,60.62
2023-04-26T00:35:33.971Z,60.75
2023-04-26T00:38:00.590Z,60.69
2023-04-26T00:40:27.157Z,60.75
2023-04-26T00:42:57.590Z,60.64
2023-04-26T00:45:24.226Z,60.64
2023-04-26T00:47:51.090Z,60.65
2023-04-26T00:50:18.385Z,60.71
2023-04-26T00:52:46.655Z,60.80
2023-04-26T00:55:13.880Z,60.87
2023-04-26T00:57:40.732Z,60.87
2023-04-26T01:00:07.919Z,60.76
2023-04-26T01:02:34.817Z,60.89
2023-04-26T01:05:01.649Z,60.96
2023-04-26T01:07:28.328Z,60.89
2023-04-26T01:09:55.972Z,60.98
2023-04-26T01:12:23.680Z,61.03
2023-04-26T01:14:51.194Z,61.07
2023-04-26T01:17:19.371Z,61.10
2023-04-26T01:19:49.534Z,61.21
2023-04-26T01:22:16.114Z,61.19
2023-04-26T01:24:45.712Z,61.13
2023-04-26T01:27:12.303Z,61.32
2023-04-26T01:29:40.925Z,61.22
2023-04-26T01:32:07.437Z,61.21
2023-04-26T01:34:34.100Z,61.24
2023-04-26T01:37:01.000Z,61.26
2023-04-26T01:39:27.840Z,61.32
2023-04-26T01:41:57.855Z,61.35
2023-04-26T01:44:24.321Z,61.43
2023-04-26T01:46:51.885Z,61.44
2023-04-26T01:49:18.445Z,61.48
2023-04-26T01:51:46.963Z,61.64
2023-04-26T01:54:13.497Z,61.51
2023-04-26T01:56:40.015Z,61.49
2023-04-26T01:59:06.624Z,61.59
2023-04-26T02:01:33.147Z,61.53
2023-04-26T02:03:59.657Z,61.51
2023-04-26T02:06:26.184Z,61.52
2023-04-26T02:08:53.629Z,61.62
2023-04-26T02:11:20.724Z,61.66
2023-04-26T02:13:47.257Z,61.62
2023-04-26T02:16:15.768Z,61.63
2023-04-26T02:18:42.226Z,61.73
2023-04-26T02:21:11.055Z,61.69
2023-04-26T02:23:37.825Z,61.74
2023-04-26T02:26:04.551Z,61.78
2023-04-26T02:28:31.491Z,61.74
2023-04-26T02:30:58.118Z,61.80
2023-04-26T02:33:24.962Z,61.83
2023-04-26T02:35:51.549Z,61.96
2023-04-26T02:38:18.825Z,62.09
2023-04-26T02:40:45.416Z,62.01
2023-04-26T02:43:12.393Z,61.91
2023-04-26T02:45:42.579Z,62.07
2023-04-26T02:48:10.606Z,62.18
2023-04-26T02:50:37.371Z,62.40
2023-04-26T02:53:04.478Z,62.34
2023-04-26T02:55:31.644Z,62.39
2023-04-26T02:57:58.174Z,62.47
2023-04-26T03:00:25.546Z,62.46
2023-04-26T03:02:52.622Z,62.50
2023-04-26T03:05:19.501Z,62.60
2023-04-26T03:07:46.237Z,62.61
2023-04-26T03:10:13.140Z,62.68
2023-04-26T03:12:40.363Z,62.74
2023-04-26T03:15:07.329Z,62.77
2023-04-26T03:17:34.920Z,62.74
2023-04-26T03:20:02.853Z,62.74
2023-04-26T03:22:29.900Z,62.79
2023-04-26T03:24:56.393Z,62.88
2023-04-26T03:27:23.407Z,62.99
2023-04-26T03:29:53.258Z,62.99
2023-04-26T03:32:20.019Z,62.82
2023-04-26T03:34:48.049Z,62.96
2023-04-26T03:37:15.062Z,63.00
2023-04-26T03:39:43.140Z,63.05
2023-04-26T03:42:09.703Z,63.15
2023-04-26T03:44:36.628Z,63.29
2023-04-26T03:47:04.536Z,63.28
2023-04-26T03:49:31.915Z,63.44
2023-04-26T03:51:58.456Z,63.45
2023-04-26T03:54:25.109Z,63.40
2023-04-26T03:56:52.474Z,63.40
2023-04-26T03:59:20.119Z,63.37
2023-04-26T04:01:47.503Z,63.35
2023-04-26T04:04:14.307Z,63.66
2023-04-26T04:06:41.392Z,63.47
2023-04-26T04:09:08.435Z,64.25
2023-04-26T04:11:34.972Z,64.00
2023-04-26T04:14:02.258Z,63.97
2023-04-26T04:16:29.046Z,63.89
2023-04-26T04:18:56.029Z,63.72
2023-04-26T04:21:22.521Z,63.61
2023-04-26T04:23:49.537Z,63.85
2023-04-26T04:26:16.743Z,64.30
2023-04-26T04:28:44.844Z,64.96
2023-04-26T04:31:12.313Z,65.53
2023-04-26T04:33:39.042Z,65.14
2023-04-26T04:36:07.610Z,63.86
2023-04-26T04:38:35.199Z,63.98
2023-04-26T04:41:03.972Z,66.54
2023-04-26T04:43:30.680Z,65.84
2023-04-26T04:45:57.841Z,64.20
2023-04-26T04:48:24.420Z,63.68
2023-04-26T04:50:51.099Z,63.59
2023-04-26T04:53:18.030Z,63.59
2023-04-26T04:55:44.783Z,63.31
2023-04-26T04:58:14.137Z,62.98
2023-04-26T05:00:41.019Z,62.73
2023-04-26T05:03:19.669Z,62.66
2023-04-26T05:05:46.930Z,62.52
2023-04-26T05:08:14.452Z,61.94
2023-04-26T05:10:41.022Z,62.28
2023-04-26T05:13:07.544Z,62.56
2023-04-26T05:15:34.109Z,62.23
2023-04-26T05:18:00.762Z,62.36
2023-04-26T05:20:28.824Z,62.59
2023-04-26T05:22:55.489Z,62.68
2023-04-26T05:25:22.791Z,61.92
2023-04-26T05:27:54.068Z,62.27
2023-04-26T05:30:46.796Z,62.55
2023-04-26T05:33:33.639Z,62.25
2023-04-26T05:36:15.387Z,62.68
2023-04-26T05:38:41.976Z,61.99
2023-04-26T05:41:09.897Z,61.94
2023-04-26T05:43:37.234Z,61.84
2023-04-26T05:46:05.421Z,61.83
2023-04-26T05:48:31.981Z,62.03
2023-04-26T05:50:58.513Z,61.54
2023-04-26T05:53:25.229Z,61.40
2023-04-26T05:55:52.018Z,61.17
2023-04-26T05:58:18.546Z,61.19
2023-04-26T06:00:45.801Z,61.16
2023-04-26T06:03:12.908Z,60.88
2023-04-26T06:05:40.513Z,60.44
2023-04-26T06:08:07.402Z,60.47
2023-04-26T06:10:35.673Z,59.96
2023-04-26T06:13:02.211Z,60.26
2023-04-26T06:15:31.014Z,59.97
2023-04-26T06:17:58.915Z,59.42
2023-04-26T06:20:25.667Z,59.59
2023-04-26T06:22:52.159Z,59.49
2023-04-26T06:25:18.703Z,59.11
2023-04-26T06:27:46.106Z,58.68
2023-04-26T06:30:13.657Z,58.16
2023-04-26T06:32:43.233Z,59.23
2023-04-26T06:35:10.213Z,59.43
2023-04-26T06:37:37.020Z,59.01
2023-04-26T06:40:04.434Z,58.52
2023-04-26T06:42:31.409Z,57.70
2023-04-26T06:45:21.350Z,57.75
2023-04-26T06:47:52.426Z,57.95
2023-04-26T06:50:19.271Z,57.96
2023-04-26T06:52:45.749Z,57.46
2023-04-26T06:55:12.268Z,57.35
2023-04-26T06:57:38.741Z,57.99
2023-04-26T07:00:06.080Z,57.91
2023-04-26T07:02:32.710Z,57.57
2023-04-26T07:04:59.581Z,56.88
2023-04-26T07:07:26.709Z,57.39
2023-04-26T07:09:53.362Z,57.37
2023-04-26T07:12:20.425Z,57.52
2023-04-26T07:14:46.929Z,57.34
2023-04-26T07:17:13.393Z,57.01
2023-04-26T07:19:40.128Z,56.66
2023-04-26T07:22:06.727Z,56.72
2023-04-26T07:24:33.218Z,56.61
2023-04-26T07:27:01.351Z,56.07
2023-04-26T07:29:28.222Z,56.00
2023-04-26T07:31:56.309Z,56.15
2023-04-26T07:34:22.849Z,55.92
2023-04-26T07:36:49.463Z,55.89
2023-04-26T07:39:15.990Z,55.54
2023-04-26T07:41:43.841Z,55.39
2023-04-26T07:44:10.800Z,55.39
2023-04-26T07:53:22.241Z,55.19
2023-04-26T07:55:51.004Z,55.27
2023-04-26T07:58:18.702Z,55.22
2023-04-26T08:00:45.353Z,54.76
2023-04-26T08:03:15.973Z,54.24
2023-04-26T08:05:43.535Z,54.59
2023-04-26T08:08:10.418Z,53.85
2023-04-26T08:10:40.888Z,54.11
2023-04-26T08:13:07.714Z,53.90
2023-04-26T08:15:34.308Z,54.12
2023-04-26T08:18:01.314Z,54.29
2023-04-26T08:20:27.874Z,54.17
2023-04-26T08:22:56.332Z,54.12
2023-04-26T08:25:23.980Z,53.89
2023-04-26T08:27:51.796Z,53.58
2023-04-26T08:30:19.223Z,53.37
2023-04-26T08:32:45.806Z,53.59
2023-04-26T08:35:12.760Z,53.78
2023-04-26T08:37:39.321Z,53.91
2023-04-26T08:40:09.977Z,53.64
2023-04-26T08:42:43.728Z,52.86
2023-04-26T08:45:11.035Z,53.09
2023-04-26T08:47:47.059Z,53.44
2023-04-26T08:50:15.624Z,53.07
2023-04-26T08:52:43.852Z,52.81
2023-04-26T08:55:12.263Z,53.01
2023-04-26T08:57:42.886Z,53.38
2023-04-26T09:00:12.819Z,52.85
2023-04-26T09:02:42.336Z,52.59
2023-04-26T09:05:10.114Z,51.26
2023-04-26T09:07:42.333Z,50.78
2023-04-26T09:10:10.532Z,51.70
2023-04-26T09:12:37.886Z,51.94
2023-04-26T09:15:09.732Z,51.08
2023-04-26T09:17:41.152Z,50.46
2023-04-26T09:20:25.048Z,51.90
2023-04-26T09:22:52.601Z,51.06
2023-04-26T09:25:29.556Z,51.26
2023-04-26T09:27:56.850Z,51.81
2023-04-26T09:30:23.909Z,51.55
2023-04-26T09:32:54.177Z,51.85
2023-04-26T09:35:27.374Z,52.41
2023-04-26T09:38:01.068Z,51.98
2023-04-26T09:40:42.247Z,51.46
2023-04-26T09:43:22.041Z,51.51
2023-04-26T09:45:56.904Z,50.33
2023-04-26T09:48:29.901Z,49.74
2023-04-26T09:50:59.287Z,50.44
2023-04-26T09:53:28.226Z,50.60
2023-04-26T09:55:56.246Z,50.86
2023-04-26T09:58:23.465Z,50.56
2023-04-26T10:00:51.549Z,50.49
2023-04-26T10:03:20.277Z,49.96
2023-04-26T10:05:47.468Z,49.74
2023-04-26T10:08:14.506Z,50.16
2023-04-26T10:10:42.065Z,49.66
2023-04-26T10:13:10.446Z,49.26
2023-04-26T10:15:38.997Z,49.43
2023-04-26T10:18:06.229Z,49.46
2023-04-26T10:20:34.734Z,49.36
2023-04-26T10:23:03.017Z,49.44
2023-04-26T10:25:37.531Z,50.40
2023-04-26T10:28:05.111Z,50.42
2023-04-26T10:30:32.260Z,50.32
2023-04-26T10:32:58.827Z,49.83
2023-04-26T10:35:30.285Z,49.41
2023-04-26T10:37:59.849Z,48.40
2023-04-26T10:40:34.778Z,48.78
2023-04-26T10:43:10.773Z,48.98
2023-04-26T10:45:38.868Z,48.33
2023-04-26T10:48:41.205Z,47.92
2023-04-26T10:51:07.941Z,47.91
2023-04-26T10:53:43.363Z,48.15
2023-04-26T10:56:10.268Z,48.75
2023-04-26T10:58:40.890Z,47.63
2023-04-26T11:01:15.851Z,48.14
2023-04-26T11:03:58.391Z,48.77
2023-04-26T11:06:29.107Z,48.51
2023-04-26T11:08:55.813Z,48.65
2023-04-26T11:11:26.310Z,48.70
2023-04-26T11:13:52.846Z,48.51
2023-04-26T11:16:19.513Z,48.48
2023-04-26T11:18:47.189Z,48.40
2023-04-26T11:21:17.175Z,48.35
2023-04-26T11:23:54.262Z,48.28
2023-04-26T11:26:21.422Z,48.32
2023-04-26T11:28:48.497Z,47.90
2023-04-26T11:31:15.451Z,47.75
2023-04-26T11:33:42.012Z,48.06
2023-04-26T11:36:09.252Z,48.00
2023-04-26T11:38:37.381Z,47.77
2023-04-26T11:41:04.016Z,47.49
2023-04-26T11:43:38.155Z,47.81
2023-04-26T11:46:06.982Z,47.89
2023-04-26T11:48:35.949Z,47.80
2023-04-26T11:51:04.388Z,47.48
2023-04-26T11:53:36.865Z,47.43
2023-04-26T11:56:12.608Z,47.83
2023-04-26T11:58:39.215Z,47.45
2023-04-26T12:01:05.699Z,47.17
2023-04-26T12:03:34.622Z,46.83
2023-04-26T12:06:01.686Z,47.16
2023-04-26T12:08:28.305Z,47.08
2023-04-26T12:11:00.471Z,47.12
2023-04-26T12:13:28.943Z,46.43
2023-04-26T12:15:55.673Z,46.90
2023-04-26T12:18:29.735Z,46.50
2023-04-26T12:20:58.693Z,45.91
2023-04-26T12:23:25.925Z,46.30
2023-04-26T12:25:59.862Z,46.22
2023-04-26T12:28:26.394Z,45.65
2023-04-26T12:30:52.904Z,45.24
2023-04-26T12:33:22.236Z,45.52
2023-04-26T12:35:49.652Z,46.10
2023-04-26T12:38:17.516Z,45.55
2023-04-26T12:40:44.622Z,45.90
2023-04-26T12:43:11.612Z,45.91
2023-04-26T12:45:38.185Z,45.66
2023-04-26T12:48:05.821Z,45.85
2023-04-26T12:50:32.438Z,45.53
2023-04-26T12:52:58.987Z,45.73
2023-04-26T12:55:26.121Z,45.69
2023-04-26T12:57:52.673Z,45.41
2023-04-26T13:00:20.887Z,45.59
2023-04-26T13:02:47.875Z,44.92
2023-04-26T13:05:14.595Z,44.61
2023-04-26T13:07:42.790Z,45.01
2023-04-26T13:10:12.463Z,45.10
2023-04-26T13:12:39.948Z,45.37
2023-04-26T13:15:07.372Z,45.40
2023-04-26T13:17:35.531Z,45.32
2023-04-26T13:20:03.986Z,45.56
2023-04-26T13:22:30.858Z,45.57
2023-04-26T13:24:57.415Z,45.54
2023-04-26T13:27:24.056Z,45.53
2023-04-26T13:29:51.733Z,45.47
2023-04-26T13:32:18.351Z,45.45
2023-04-26T13:34:45.153Z,44.77
2023-04-26T13:37:11.855Z,44.92
2023-04-26T13:39:38.384Z,44.73
2023-04-26T13:42:05.460Z,45.00
2023-04-26T13:44:31.973Z,44.96
2023-04-26T13:47:00.130Z,44.49
2023-04-26T13:49:26.719Z,44.02
2023-04-26T13:51:53.419Z,43.40
2023-04-26T13:54:25.176Z,43.91
2023-04-26T13:56:52.891Z,44.27
2023-04-26T13:59:20.075Z,44.15
2023-04-26T14:01:46.788Z,44.11
2023-04-26T14:04:13.720Z,43.72
2023-04-26T14:06:40.819Z,43.54
2023-04-26T14:09:08.125Z,43.53
2023-04-26T14:11:35.008Z,44.03
2023-04-26T14:14:01.769Z,44.94
2023-04-26T14:16:28.372Z,45.17
2023-04-26T14:18:54.977Z,45.20
2023-04-26T14:21:21.659Z,45.39
2023-04-26T14:23:48.616Z,45.41
2023-04-26T14:26:15.909Z,45.51
2023-04-26T14:28:42.434Z,45.55
2023-04-26T14:31:08.987Z,45.57
2023-04-26T14:33:35.638Z,45.57
2023-04-26T14:36:02.455Z,45.52
2023-04-26T14:38:29.010Z,45.60
2023-04-26T14:40:55.944Z,45.65
2023-04-26T14:43:23.225Z,45.69
2023-04-26T14:45:50.246Z,45.85
2023-04-26T14:48:17.286Z,45.95
2023-04-26T14:50:44.172Z,46.03
2023-04-26T14:53:10.908Z,46.04
2023-04-26T14:55:37.488Z,45.99
2023-04-26T14:58:04.122Z,45.72
2023-04-26T15:00:30.825Z,45.02
2023-04-26T15:02:57.615Z,44.87
2023-04-26T15:05:24.462Z,44.83
2023-04-26T15:07:51.487Z,44.72
2023-04-26T15:10:18.310Z,45.02
2023-04-26T15:12:45.236Z,45.31
2023-04-26T15:15:11.767Z,45.55
2023-04-26T15:17:38.344Z,45.69
2023-04-26T15:20:05.671Z,46.16
2023-04-26T15:22:33.396Z,46.14
2023-04-26T15:24:59.976Z,46.32
2023-04-26T15:27:26.522Z,46.39
2023-04-26T15:29:53.129Z,46.38
2023-04-26T15:32:19.741Z,46.43
2023-04-26T15:34:47.026Z,46.12
2023-04-26T15:37:13.558Z,46.10
2023-04-26T15:39:40.107Z,45.52
2023-04-26T15:42:06.626Z,45.33
2023-04-26T15:44:33.192Z,44.98
2023-04-26T15:47:03.188Z,44.61
2023-04-26T15:49:30.250Z,44.79
2023-04-26T15:51:56.895Z,44.94
2023-04-26T15:54:23.733Z,45.25
2023-04-26T15:56:50.315Z,45.49
2023-04-26T15:59:16.982Z,45.89
2023-04-26T16:01:43.631Z,46.18
2023-04-26T16:04:11.259Z,46.16
2023-04-26T16:06:38.073Z,46.21
2023-04-26T16:09:17.274Z,46.24
2023-04-26T16:11:50.584Z,46.46
2023-04-26T16:14:17.208Z,46.64
2023-04-26T16:16:45.212Z,46.47
2023-04-26T16:19:11.835Z,46.33
2023-04-26T16:21:39.599Z,46.40
2023-04-26T16:24:08.304Z,46.41
2023-04-26T16:26:35.018Z,46.43
2023-04-26T16:29:03.343Z,46.45
2023-04-26T16:31:31.620Z,46.38
2023-04-26T16:33:58.755Z,46.56
2023-04-26T16:36:26.598Z,46.65
2023-04-26T16:38:53.754Z,46.71
2023-04-26T16:41:20.561Z,46.71
2023-04-26T16:43:47.171Z,46.67
2023-04-26T16:46:14.223Z,46.67
2023-04-26T16:48:40.811Z,47.00
2023-04-26T16:51:07.820Z,47.26
2023-04-26T16:53:35.184Z,47.57
2023-04-26T16:56:01.836Z,47.86
2023-04-26T16:58:28.382Z,48.03
2023-04-26T17:00:55.717Z,48.34
2023-04-26T17:03:23.796Z,48.23
2023-04-26T17:05:50.891Z,48.19
2023-04-26T17:08:18.610Z,48.28
2023-04-26T17:10:46.278Z,48.46
2023-04-26T17:13:13.190Z,48.40
2023-04-26T17:15:40.976Z,48.48
2023-04-26T17:18:08.833Z,48.59
2023-04-26T17:20:36.031Z,48.53
2023-04-26T17:23:03.677Z,48.48
2023-04-26T17:25:30.591Z,48.47
2023-04-26T17:27:57.277Z,48.53
2023-04-26T17:30:23.846Z,48.63
2023-04-26T17:32:50.837Z,48.71
2023-04-26T17:35:17.560Z,48.72
2023-04-26T17:37:49.202Z,48.80
2023-04-26T17:40:17.181Z,48.94
2023-04-26T17:42:44.296Z,48.96
2023-04-26T17:45:13.918Z,48.92
2023-04-26T17:47:42.143Z,49.10
2023-04-26T17:50:08.956Z,49.24
2023-04-26T17:52:36.217Z,49.29
2023-04-26T17:55:09.158Z,49.18
2023-04-26T17:57:36.288Z,49.23
2023-04-26T18:00:03.628Z,49.34
2023-04-26T18:02:35.664Z,49.23
2023-04-26T18:05:03.919Z,49.27
2023-04-26T18:07:30.938Z,49.35
2023-04-26T18:09:57.460Z,49.29
2023-04-26T18:12:24.813Z,49.39
2023-04-26T18:14:51.540Z,49.24
2023-04-26T18:17:18.225Z,49.56
2023-04-26T18:19:44.938Z,49.50
2023-04-26T18:22:11.517Z,49.53
2023-04-26T18:24:38.321Z,49.53
2023-04-26T18:27:05.569Z,49.55
2023-04-26T18:29:32.197Z,49.61
2023-04-26T18:31:58.764Z,49.72
2023-04-26T18:34:25.583Z,49.73
2023-04-26T18:36:52.165Z,49.79
2023-04-26T18:39:18.685Z,49.83
2023-04-26T18:41:45.305Z,49.81
2023-04-26T18:44:14.938Z,49.79
2023-04-26T18:46:42.443Z,49.75
2023-04-26T18:49:09.615Z,49.88
2023-04-26T18:51:36.381Z,49.97
2023-04-26T18:54:03.267Z,49.86
2023-04-26T18:56:30.851Z,50.04
2023-04-26T18:58:57.653Z,50.07
2023-04-26T19:01:24.245Z,50.16
2023-04-26T19:03:51.014Z,50.27
2023-04-26T19:06:17.780Z,50.24
2023-04-26T19:08:44.782Z,50.20
2023-04-26T19:11:11.964Z,50.21
2023-04-26T19:13:39.605Z,50.10
2023-04-26T19:16:07.468Z,50.19
2023-04-26T19:18:39.782Z,50.17
2023-04-26T19:21:07.692Z,50.32
2023-04-26T19:23:35.356Z,50.32
2023-04-26T19:26:07.363Z,50.46
2023-04-26T19:28:35.218Z,50.42
2023-04-26T19:31:01.875Z,50.51
2023-04-26T19:33:28.828Z,50.52
2023-04-26T19:35:56.049Z,50.62
2023-04-26T19:38:23.613Z,50.79
2023-04-26T19:40:50.906Z,50.85
2023-04-26T19:43:17.860Z,50.92
2023-04-26T19:45:44.936Z,51.04
2023-04-26T19:48:12.590Z,51.13
2023-04-26T19:50:43.889Z,51.16
2023-04-26T19:53:12.534Z,51.17
2023-04-26T19:55:40.462Z,51.19
2023-04-26T19:58:07.816Z,51.27
2023-04-26T20:00:38.319Z,51.26
2023-04-26T20:03:05.626Z,51.39
2023-04-26T20:05:32.893Z,51.46
2023-04-26T20:07:59.537Z,51.65
2023-04-26T20:10:29.677Z,51.76
2023-04-26T20:12:56.359Z,51.57
2023-04-26T20:15:23.525Z,51.71
2023-04-26T20:17:50.141Z,51.91
2023-04-26T20:20:16.759Z,51.91
2023-04-26T20:22:43.283Z,52.02
2023-04-26T20:25:10.191Z,52.11
2023-04-26T20:27:36.748Z,52.13
2023-04-26T20:30:03.678Z,52.24
2023-04-26T20:32:30.192Z,52.23
2023-04-26T20:34:56.766Z,52.34
2023-04-26T20:37:23.446Z,52.39
2023-04-26T20:39:50.087Z,52.30
2023-04-26T20:42:16.626Z,52.48
2023-04-26T20:44:43.274Z,52.58
2023-04-26T20:47:09.944Z,52.54
2023-04-26T20:49:36.667Z,52.61
2023-04-26T20:52:03.487Z,52.61
2023-04-26T20:54:30.933Z,52.53
2023-04-26T20:56:57.661Z,52.56
2023-04-26T20:59:25.345Z,52.60
2023-04-26T21:01:52.985Z,52.73
2023-04-26T21:04:19.910Z,52.84
2023-04-26T21:06:46.699Z,53.02
2023-04-26T21:09:13.229Z,53.16
2023-04-26T21:11:39.885Z,53.33
2023-04-26T21:14:06.508Z,53.32
2023-04-26T21:16:33.165Z,53.19
2023-04-26T21:18:59.868Z,53.20
2023-04-26T21:21:28.388Z,53.21
2023-04-26T21:23:54.977Z,53.21
2023-04-26T21:26:21.577Z,53.28
2023-04-26T21:28:48.163Z,53.24
2023-04-26T21:31:14.973Z,53.34
2023-04-26T21:33:41.578Z,53.41
2023-04-26T21:36:08.510Z,53.44
2023-04-26T21:38:35.216Z,53.39
2023-04-26T21:41:01.809Z,53.40
2023-04-26T21:43:28.496Z,53.53
2023-04-26T21:45:57.189Z,53.53
2023-04-26T21:48:24.327Z,53.46
2023-04-26T21:50:50.932Z,53.51
2023-04-26T21:53:17.698Z,53.60
2023-04-26T21:55:50.849Z,53.65
2023-04-26T21:58:18.601Z,53.63
2023-04-26T22:00:46.025Z,53.67
2023-04-26T22:03:13.627Z,53.79
2023-04-26T22:05:40.310Z,53.79
2023-04-26T22:08:06.856Z,53.76
2023-04-26T22:10:33.855Z,53.85
2023-04-26T22:13:00.547Z,53.81
2023-04-26T22:15:27.393Z,53.86
2023-04-26T22:17:53.947Z,54.00
2023-04-26T22:20:20.918Z,53.94
2023-04-26T22:22:47.541Z,53.91
2023-04-26T22:25:14.038Z,54.01
2023-04-26T22:27:40.547Z,54.05
2023-04-26T22:30:22.962Z,54.12
2023-04-26T22:32:53.480Z,54.30
2023-04-26T22:35:20.982Z,54.28
2023-04-26T22:37:47.616Z,54.38
2023-04-26T22:40:15.524Z,54.44
2023-04-26T22:42:42.717Z,54.54
2023-04-26T22:45:10.785Z,54.52
2023-04-26T22:47:38.090Z,54.51
2023-04-26T22:50:05.407Z,54.70
2023-04-26T22:52:32.438Z,54.68
2023-04-26T22:55:00.060Z,54.79
2023-04-26T22:57:28.127Z,54.90
2023-04-26T22:59:54.732Z,54.81
2023-04-26T23:02:21.442Z,54.93
2023-04-26T23:04:48.354Z,55.01
2023-04-26T23:07:15.736Z,55.08
2023-04-26T23:09:42.303Z,55.17
2023-04-26T23:12:09.252Z,55.19
2023-04-26T23:14:35.841Z,55.27
2023-04-26T23:17:02.633Z,55.30
2023-04-26T23:19:29.341Z,55.30
2023-04-26T23:21:55.913Z,55.41
2023-04-26T23:24:22.524Z,55.45
2023-04-26T23:26:49.062Z,55.46
2023-04-26T23:29:15.653Z,55.54
2023-04-26T23:31:42.434Z,55.59
2023-04-26T23:34:09.143Z,55.58
2023-04-26T23:36:35.782Z,55.57
2023-04-26T23:39:03.134Z,55.55
2023-04-26T23:41:29.699Z,55.58
2023-04-26T23:43:56.228Z,55.78
2023-04-26T23:46:22.883Z,55.87
2023-04-26T23:48:49.835Z,55.81
2023-04-26T23:51:16.661Z,55.85
2023-04-26T23:53:44.232Z,55.94
2023-04-26T23:56:10.809Z,55.95
2023-04-26T23:58:37.351Z,56.10
